Time;durP1;ratioP1;P1;durP2;ratioP2;P2;SDS_P1;SDS_P2;PMS_P1;PMS_P2;Temp;Humidity;BMP_temperature;BMP_pressure;BME280_temperature;BME280_humidity;BME280_pressure;Samples;Min_cycle;Max_cycle;Signal;HPM_P1;HPM_P2
2020/12/02 00:00:44;;;;;;;17.02;12.30;;;3.50;99.90;;;;;;4161202;34;20204;-82
2020/12/02 00:03:18;;;;;;;16.98;11.13;;;3.50;99.90;;;;;;4171175;26;20192;-81
2020/12/02 00:05:47;;;;;;;13.98;10.88;;;3.50;99.90;;;;;;4163356;34;20273;-82
2020/12/02 00:08:16;;;;;;;20.45;13.77;;;3.40;99.90;;;;;;4163259;34;20185;-82
2020/12/02 00:10:43;;;;;;;25.67;14.55;;;3.30;99.90;;;;;;4159303;34;20532;-81
2020/12/02 00:13:13;;;;;;;20.40;13.15;;;3.30;99.90;;;;;;4156931;34;20224;-81
2020/12/02 00:15:40;;;;;;;22.55;14.23;;;3.40;99.90;;;;;;4160061;34;20747;-80
2020/12/02 00:18:06;;;;;;;21.85;15.60;;;3.20;99.90;;;;;;4156724;34;20205;-82
2020/12/02 00:20:33;;;;;;;18.15;13.27;;;3.40;99.90;;;;;;4156463;34;20209;-81
2020/12/02 00:23:00;;;;;;;17.55;13.63;;;3.40;99.90;;;;;;4159222;34;20724;-82
2020/12/02 00:25:26;;;;;;;19.40;12.88;;;3.40;99.90;;;;;;4159861;34;20728;-81
2020/12/02 00:27:52;;;;;;;20.30;15.13;;;3.50;99.90;;;;;;4159323;34;20245;-81
2020/12/02 00:30:19;;;;;;;21.35;15.00;;;3.50;99.90;;;;;;4159370;34;20249;-81
2020/12/02 00:32:47;;;;;;;23.30;13.68;;;3.60;99.90;;;;;;4156132;34;20248;-82
2020/12/02 00:35:16;;;;;;;20.48;13.23;;;3.60;99.90;;;;;;4159822;34;20185;-81
2020/12/02 00:37:43;;;;;;;20.05;13.40;;;3.60;99.90;;;;;;4159224;34;20186;-80
2020/12/02 00:40:12;;;;;;;23.73;14.70;;;3.60;99.90;;;;;;4156348;34;20205;-81
2020/12/02 00:42:40;;;;;;;25.50;15.20;;;3.50;99.90;;;;;;4156333;34;20209;-81
2020/12/02 00:45:08;;;;;;;18.95;14.18;;;3.50;99.90;;;;;;4159266;34;20209;-81
2020/12/02 00:47:37;;;;;;;18.77;12.55;;;3.50;99.90;;;;;;4156494;34;20213;-81
2020/12/02 00:50:08;;;;;;;18.23;13.23;;;3.60;99.90;;;;;;4160066;34;20236;-82
2020/12/02 00:52:34;;;;;;;14.77;11.13;;;3.60;99.90;;;;;;4171228;26;20743;-81
2020/12/02 00:55:01;;;;;;;21.27;15.55;;;3.60;99.90;;;;;;4156498;34;20204;-81
2020/12/02 00:57:35;;;;;;;18.80;14.65;;;3.60;99.90;;;;;;4159533;34;20561;-81
2020/12/02 01:00:07;;;;;;;18.98;13.40;;;3.40;99.90;;;;;;4166656;26;20193;-81
2020/12/02 01:02:37;;;;;;;30.77;15.93;;;3.50;99.90;;;;;;4159650;34;20223;-82
2020/12/02 01:05:06;;;;;;;27.77;16.02;;;3.50;99.90;;;;;;4156392;34;20205;-82
2020/12/02 01:07:32;;;;;;;36.80;15.98;;;3.50;99.90;;;;;;4156411;34;20212;-82
2020/12/02 01:09:59;;;;;;;25.23;15.98;;;3.50;99.90;;;;;;4156527;34;20597;-81
2020/12/02 01:12:26;;;;;;;23.00;16.63;;;3.40;99.90;;;;;;4156176;34;20704;-81
2020/12/02 01:14:52;;;;;;;24.52;15.10;;;3.50;99.90;;;;;;4159536;34;20529;-82
2020/12/02 01:17:18;;;;;;;29.10;18.02;;;3.50;99.90;;;;;;4159838;34;20226;-81
2020/12/02 01:19:44;;;;;;;62.22;21.02;;;3.40;99.90;;;;;;4159362;34;20234;-82
2020/12/02 01:22:17;;;;;;;79.00;23.02;;;3.50;99.90;;;;;;4159360;34;20189;-82
2020/12/02 01:24:49;;;;;;;81.35;22.52;;;3.50;99.90;;;;;;4159556;34;20200;-82
2020/12/02 01:27:22;;;;;;;84.30;24.77;;;3.50;99.90;;;;;;4159463;34;20244;-81
2020/12/02 01:29:50;;;;;;;62.75;20.30;;;3.40;99.90;;;;;;4159718;34;20361;-81
2020/12/02 01:32:16;;;;;;;64.50;21.05;;;3.30;99.90;;;;;;4156343;34;20185;-82
2020/12/02 01:34:47;;;;;;;57.50;22.25;;;3.20;99.90;;;;;;4156294;34;20216;-81
2020/12/02 01:37:31;;;;;;;47.13;20.10;;;3.30;99.90;;;;;;4159800;34;20732;-81
2020/12/02 01:40:07;;;;;;;140.30;30.08;;;3.30;99.90;;;;;;4159211;34;20219;-81
2020/12/02 01:42:33;;;;;;;72.38;23.83;;;3.20;99.90;;;;;;4156320;34;20203;-81
2020/12/02 01:45:12;;;;;;;85.97;22.90;;;3.20;99.90;;;;;;4159529;34;20245;-82
2020/12/02 01:47:49;;;;;;;27.75;15.15;;;3.20;99.90;;;;;;4167603;26;20212;-81
2020/12/02 01:50:22;;;;;;;67.50;21.23;;;3.30;99.90;;;;;;4159833;34;20362;-81
2020/12/02 01:52:56;;;;;;;28.10;18.23;;;3.30;99.90;;;;;;4157093;34;20201;-81
2020/12/02 01:55:28;;;;;;;34.42;18.15;;;3.40;99.90;;;;;;4157799;34;20235;-81
2020/12/02 01:58:08;;;;;;;112.32;29.20;;;3.30;99.90;;;;;;4157836;34;20209;-81
2020/12/02 02:00:39;;;;;;;40.45;17.85;;;3.40;99.90;;;;;;4157485;34;20556;-81
2020/12/02 02:03:11;;;;;;;25.60;18.05;;;3.40;99.90;;;;;;4157028;34;20189;-82
2020/12/02 02:05:45;;;;;;;26.35;17.33;;;3.40;99.90;;;;;;4157574;34;20218;-81
2020/12/02 02:08:12;;;;;;;21.92;15.77;;;3.50;99.90;;;;;;4160504;34;20738;-82
2020/12/02 02:10:41;;;;;;;24.73;15.73;;;3.40;99.90;;;;;;4157913;34;20235;-81
2020/12/02 02:13:40;;;;;;;28.20;16.50;;;3.50;99.90;;;;;;4157752;34;20185;-81
2020/12/02 02:16:13;;;;;;;20.90;13.30;;;3.50;99.90;;;;;;4157253;34;20205;-81
2020/12/02 02:18:40;;;;;;;28.15;15.85;;;3.60;99.90;;;;;;4157102;34;20193;-81
2020/12/02 02:21:10;;;;;;;24.00;14.88;;;3.50;99.90;;;;;;4160139;34;20658;-81
2020/12/02 02:23:37;;;;;;;25.48;15.45;;;3.50;99.90;;;;;;4160410;34;20754;-81
2020/12/02 02:26:11;;;;;;;27.95;14.75;;;3.50;99.90;;;;;;4160643;34;20228;-81
2020/12/02 02:28:50;;;;;;;22.63;15.45;;;3.50;99.90;;;;;;4157466;34;20208;-81
2020/12/02 02:31:20;;;;;;;28.38;16.65;;;3.50;99.90;;;;;;4156729;34;20237;-81
2020/12/02 02:33:48;;;;;;;28.25;14.95;;;3.50;99.90;;;;;;4160068;34;20221;-81
2020/12/02 02:36:19;;;;;;;27.13;15.95;;;3.50;99.90;;;;;;4156904;34;20220;-81
2020/12/02 02:38:45;;;;;;;28.63;15.40;;;3.50;99.90;;;;;;4158123;26;20213;-81
2020/12/02 02:41:13;;;;;;;25.90;16.38;;;3.50;99.90;;;;;;4160076;34;20271;-81
2020/12/02 02:43:39;;;;;;;22.50;14.93;;;3.50;99.90;;;;;;4159738;34;20271;-81
2020/12/02 02:46:07;;;;;;;22.98;15.85;;;3.50;99.90;;;;;;4159984;34;20208;-82
2020/12/02 02:48:34;;;;;;;20.17;14.88;;;3.40;99.90;;;;;;4159834;34;20704;-81
2020/12/02 02:51:01;;;;;;;23.60;14.15;;;3.50;99.90;;;;;;4157043;34;20298;-81
2020/12/02 02:53:28;;;;;;;18.58;15.13;;;3.50;99.90;;;;;;4171341;26;20193;-82
2020/12/02 02:55:55;;;;;;;23.42;16.38;;;3.40;99.90;;;;;;4157348;34;20543;-81
2020/12/02 02:58:25;;;;;;;23.27;16.80;;;3.40;99.90;;;;;;4160060;34;20216;-81
2020/12/02 03:00:52;;;;;;;24.77;14.50;;;3.40;99.90;;;;;;4159829;34;20572;-81
2020/12/02 03:03:19;;;;;;;25.30;18.13;;;3.40;99.90;;;;;;4156892;34;20546;-81
2020/12/02 03:05:46;;;;;;;26.55;16.55;;;3.30;99.90;;;;;;4156732;34;20306;-81
2020/12/02 03:08:13;;;;;;;21.48;14.35;;;3.40;99.90;;;;;;4165935;26;20231;-81
2020/12/02 03:10:42;;;;;;;27.95;18.27;;;3.50;99.90;;;;;;4159478;34;20235;-81
2020/12/02 03:13:20;;;;;;;17.02;12.95;;;3.50;99.90;;;;;;4159787;34;20222;-81
2020/12/02 03:15:47;;;;;;;18.40;14.75;;;3.60;99.90;;;;;;4159763;34;20204;-82
2020/12/02 03:18:14;;;;;;;20.35;13.82;;;3.60;99.90;;;;;;4156739;34;20205;-80
2020/12/02 03:20:44;;;;;;;19.75;14.63;;;3.60;99.90;;;;;;4156830;34;20189;-81
2020/12/02 03:23:14;;;;;;;16.48;12.73;;;3.60;99.90;;;;;;4156798;34;20696;-81
2020/12/02 03:25:42;;;;;;;20.20;12.48;;;3.70;99.90;;;;;;4168301;26;20219;-81
2020/12/02 03:28:09;;;;;;;20.27;13.90;;;3.70;99.90;;;;;;4157052;34;20342;-81
2020/12/02 03:30:35;;;;;;;19.85;13.88;;;3.70;99.90;;;;;;4156723;34;20193;-82
2020/12/02 03:33:03;;;;;;;16.70;13.27;;;3.70;99.90;;;;;;4156543;34;20263;-82
2020/12/02 03:35:29;;;;;;;18.50;12.73;;;3.80;99.90;;;;;;4156541;34;20239;-82
2020/12/02 03:37:55;;;;;;;19.00;14.55;;;3.80;99.90;;;;;;4156888;34;20211;-81
2020/12/02 03:40:21;;;;;;;21.05;13.88;;;3.80;99.90;;;;;;4163104;26;20193;-82
2020/12/02 03:42:47;;;;;;;20.42;15.27;;;3.80;99.90;;;;;;4156863;34;20670;-81
2020/12/02 03:45:14;;;;;;;17.92;14.20;;;3.70;99.90;;;;;;4156926;34;20205;-81
2020/12/02 03:47:40;;;;;;;20.90;13.98;;;3.80;99.90;;;;;;4157040;34;20707;-81
2020/12/02 03:50:09;;;;;;;19.00;13.65;;;3.80;99.90;;;;;;4156644;34;20208;-81
2020/12/02 03:52:35;;;;;;;18.45;13.30;;;3.80;99.90;;;;;;4160498;34;20507;-81
2020/12/02 03:55:02;;;;;;;18.75;14.90;;;3.90;99.90;;;;;;4167596;34;20228;-80
2020/12/02 03:57:28;;;;;;;15.77;12.45;;;3.80;99.90;;;;;;4167271;34;20239;-81
2020/12/02 03:59:54;;;;;;;18.30;14.90;;;3.80;99.90;;;;;;4157170;34;20610;-82
2020/12/02 04:02:20;;;;;;;20.38;13.73;;;3.80;99.90;;;;;;4156517;34;20213;-81
2020/12/02 04:04:47;;;;;;;16.33;13.13;;;3.90;99.90;;;;;;4156660;34;20209;-81
2020/12/02 04:07:14;;;;;;;18.63;14.65;;;3.90;99.90;;;;;;4171813;26;20189;-82
2020/12/02 04:09:40;;;;;;;17.48;13.23;;;3.80;99.90;;;;;;4160403;34;20211;-81
2020/12/02 04:12:07;;;;;;;17.30;13.90;;;3.90;99.90;;;;;;4163540;34;20236;-82
2020/12/02 04:14:33;;;;;;;20.55;13.15;;;3.90;99.90;;;;;;4161800;34;20201;-82
2020/12/02 04:16:59;;;;;;;17.55;15.23;;;3.90;99.90;;;;;;4160706;34;20584;-82
2020/12/02 04:19:25;;;;;;;16.58;13.57;;;3.90;99.90;;;;;;4160845;34;20210;-82
2020/12/02 04:21:54;;;;;;;16.92;13.45;;;3.90;99.90;;;;;;4160748;34;20212;-82
2020/12/02 04:24:21;;;;;;;16.73;14.65;;;3.90;99.90;;;;;;4163848;34;20280;-81
2020/12/02 04:26:48;;;;;;;20.42;13.95;;;4.00;99.90;;;;;;4163725;34;20211;-82
2020/12/02 04:29:14;;;;;;;18.67;13.45;;;4.00;99.90;;;;;;4163591;34;20207;-82
2020/12/02 04:31:40;;;;;;;18.17;14.85;;;4.00;99.90;;;;;;4163400;34;20197;-81
2020/12/02 04:34:06;;;;;;;16.67;13.15;;;4.00;99.90;;;;;;4163458;34;20189;-82
2020/12/02 04:36:33;;;;;;;18.15;15.13;;;4.00;99.90;;;;;;4160611;34;20205;-82
2020/12/02 04:38:59;;;;;;;17.05;13.48;;;4.00;99.90;;;;;;4160508;34;20237;-82
2020/12/02 04:41:30;;;;;;;17.30;14.18;;;4.00;99.90;;;;;;4160576;34;20204;-81
2020/12/02 04:43:56;;;;;;;15.45;13.43;;;4.10;99.90;;;;;;4160966;34;20185;-81
2020/12/02 04:46:27;;;;;;;17.35;12.25;;;4.10;99.90;;;;;;4160605;34;20223;-81
2020/12/02 04:48:55;;;;;;;15.52;11.82;;;4.10;99.90;;;;;;4160930;34;20224;-81
2020/12/02 04:51:26;;;;;;;14.98;12.15;;;4.10;99.90;;;;;;4160394;34;20209;-82
2020/12/02 04:53:55;;;;;;;16.20;12.70;;;4.10;99.90;;;;;;4160578;34;20200;-82
2020/12/02 04:56:24;;;;;;;15.43;12.63;;;4.10;99.90;;;;;;4160784;34;20225;-82
2020/12/02 04:58:53;;;;;;;18.52;13.82;;;4.10;99.90;;;;;;4170363;26;20181;-82
2020/12/02 05:01:22;;;;;;;19.80;13.45;;;4.10;99.90;;;;;;4160720;34;20220;-82
2020/12/02 05:04:00;;;;;;;18.25;13.75;;;4.10;99.90;;;;;;4160235;34;20177;-82
2020/12/02 05:06:31;;;;;;;16.42;13.32;;;4.20;99.90;;;;;;4160558;34;20204;-82
2020/12/02 05:09:17;;;;;;;18.77;12.98;;;4.20;99.90;;;;;;4163659;34;20522;-82
2020/12/02 05:11:55;;;;;;;16.10;12.50;;;4.10;99.90;;;;;;4159965;34;20231;-81
2020/12/02 05:14:23;;;;;;;16.95;13.75;;;4.10;99.90;;;;;;4163534;34;20196;-82
2020/12/02 05:17:03;;;;;;;20.15;14.68;;;4.10;99.90;;;;;;4160332;34;20761;-81
2020/12/02 05:19:30;;;;;;;19.20;13.73;;;4.10;99.90;;;;;;4160078;34;20530;-82
2020/12/02 05:22:05;;;;;;;15.88;12.75;;;4.10;99.90;;;;;;4160856;34;20247;-81
2020/12/02 05:24:43;;;;;;;18.92;14.25;;;4.10;99.90;;;;;;4160229;34;20180;-82
2020/12/02 05:27:14;;;;;;;14.80;12.05;;;4.10;99.90;;;;;;4163355;34;20238;-82
2020/12/02 05:29:49;;;;;;;18.67;12.93;;;4.10;99.90;;;;;;4163763;34;20715;-81
2020/12/02 05:32:20;;;;;;;16.27;11.50;;;4.10;99.90;;;;;;4172201;26;20200;-81
2020/12/02 05:34:47;;;;;;;20.63;14.10;;;4.10;99.90;;;;;;4160978;34;20229;-82
2020/12/02 05:37:22;;;;;;;18.08;13.82;;;4.10;99.90;;;;;;4163789;34;20212;-82
2020/12/02 05:39:54;;;;;;;19.50;13.95;;;4.10;99.90;;;;;;4161032;34;20212;-82
2020/12/02 05:42:25;;;;;;;17.17;13.43;;;4.10;99.90;;;;;;4160733;34;20239;-82
2020/12/02 05:45:00;;;;;;;18.30;11.95;;;4.10;99.90;;;;;;4160544;34;20192;-82
2020/12/02 05:47:27;;;;;;;15.05;11.55;;;4.10;99.90;;;;;;4163664;34;20242;-81
2020/12/02 05:49:57;;;;;;;15.50;12.15;;;3.90;99.90;;;;;;4160330;34;20189;-82
2020/12/02 05:52:25;;;;;;;23.48;12.52;;;3.90;99.90;;;;;;4163777;34;20228;-82
2020/12/02 05:54:57;;;;;;;16.30;11.57;;;3.90;99.90;;;;;;4160707;34;20185;-81
2020/12/02 05:57:23;;;;;;;16.10;12.52;;;4.00;99.90;;;;;;4163503;34;20227;-82
2020/12/02 05:59:52;;;;;;;24.02;14.25;;;3.90;99.90;;;;;;4160169;34;20243;-82
2020/12/02 06:02:21;;;;;;;20.05;14.93;;;3.90;99.90;;;;;;4163222;34;20247;-82
2020/12/02 06:04:51;;;;;;;17.48;13.00;;;3.90;99.90;;;;;;4163784;34;20205;-82
2020/12/02 06:07:18;;;;;;;14.80;11.88;;;4.00;99.90;;;;;;4163690;34;20212;-82
2020/12/02 06:09:46;;;;;;;15.00;12.50;;;3.90;99.90;;;;;;4160300;34;20211;-82
2020/12/02 06:12:14;;;;;;;18.85;13.38;;;3.90;99.90;;;;;;4160217;34;20186;-82
2020/12/02 06:14:41;;;;;;;21.60;12.70;;;3.90;99.90;;;;;;4163681;34;20197;-82
2020/12/02 06:17:10;;;;;;;13.95;10.65;;;3.90;99.90;;;;;;4163339;34;20210;-82
2020/12/02 06:19:48;;;;;;;16.10;12.75;;;3.90;99.90;;;;;;4163172;34;20278;-82
2020/12/02 06:22:27;;;;;;;14.85;11.80;;;3.80;99.90;;;;;;4163164;34;20241;-82
2020/12/02 06:24:53;;;;;;;17.65;11.48;;;3.80;99.90;;;;;;4159941;34;20224;-82
2020/12/02 06:27:43;;;;;;;16.13;12.27;;;3.80;99.90;;;;;;4172128;26;20245;-81
2020/12/02 06:30:21;;;;;;;17.38;10.77;;;3.80;99.90;;;;;;4163498;34;20322;-82
2020/12/02 06:32:58;;;;;;;19.85;12.32;;;3.80;99.90;;;;;;4163261;34;20302;-81
2020/12/02 06:35:26;;;;;;;17.30;11.70;;;3.80;99.90;;;;;;4160401;34;20200;-81
2020/12/02 06:38:24;;;;;;;20.80;11.68;;;3.80;99.90;;;;;;4175139;26;20201;-81
2020/12/02 06:41:16;;;;;;;15.82;11.00;;;3.90;99.90;;;;;;4175082;26;20210;-82
2020/12/02 06:43:51;;;;;;;16.80;11.23;;;3.80;99.90;;;;;;4163790;34;20216;-82
2020/12/02 06:46:43;;;;;;;18.33;12.35;;;3.80;99.90;;;;;;4164217;34;20549;-82
2020/12/02 06:49:10;;;;;;;15.70;11.18;;;3.80;99.90;;;;;;4164539;34;20215;-82
2020/12/02 06:51:37;;;;;;;19.73;12.82;;;3.80;99.90;;;;;;4175866;26;20225;-82
2020/12/02 06:54:03;;;;;;;19.83;12.80;;;3.70;99.90;;;;;;4161223;34;20217;-82
2020/12/02 06:56:30;;;;;;;20.77;11.60;;;3.70;99.90;;;;;;4164703;34;20228;-83
2020/12/02 06:59:01;;;;;;;14.70;11.40;;;3.70;99.90;;;;;;4161227;34;20500;-82
2020/12/02 07:01:28;;;;;;;19.05;11.82;;;3.70;99.90;;;;;;4164560;34;20351;-82
2020/12/02 07:03:59;;;;;;;16.95;12.02;;;3.70;99.90;;;;;;4161960;34;20235;-82
2020/12/02 07:06:28;;;;;;;13.98;11.05;;;3.70;99.90;;;;;;4165241;34;20192;-81
2020/12/02 07:09:03;;;;;;;16.35;11.57;;;3.70;99.90;;;;;;4164754;34;20241;-81
2020/12/02 07:11:30;;;;;;;17.30;11.80;;;3.70;99.90;;;;;;4165229;34;20192;-82
2020/12/02 07:14:13;;;;;;;14.20;10.77;;;3.60;99.90;;;;;;4165397;34;20581;-82
2020/12/02 07:16:39;;;;;;;19.70;12.30;;;3.70;99.90;;;;;;4162745;26;20209;-82
2020/12/02 07:19:09;;;;;;;14.35;11.48;;;3.60;99.90;;;;;;4165420;34;20220;-82
2020/12/02 07:21:42;;;;;;;13.20;10.32;;;3.60;99.90;;;;;;4165192;34;20201;-81
2020/12/02 07:24:16;;;;;;;15.90;10.95;;;3.50;99.90;;;;;;4163813;26;20225;-81
2020/12/02 07:26:43;;;;;;;18.13;12.55;;;3.60;99.90;;;;;;4163662;34;20239;-85
2020/12/02 07:29:14;;;;;;;16.80;11.85;;;3.60;99.90;;;;;;4170291;26;20189;-82
2020/12/02 07:31:40;;;;;;;18.35;12.85;;;3.60;99.90;;;;;;4161359;34;20231;-82
2020/12/02 07:34:13;;;;;;;23.45;13.00;;;3.70;99.90;;;;;;4161190;34;20228;-82
2020/12/02 07:36:40;;;;;;;13.70;11.27;;;3.70;99.90;;;;;;4164500;34;20193;-82
2020/12/02 07:39:12;;;;;;;23.20;12.32;;;3.70;99.90;;;;;;4164734;34;20249;-83
2020/12/02 07:41:48;;;;;;;16.27;12.20;;;3.80;99.90;;;;;;4165211;34;20229;-83
2020/12/02 07:44:15;;;;;;;18.83;12.30;;;3.90;99.90;;;;;;4161583;34;20216;-82
2020/12/02 07:46:42;;;;;;;20.23;13.05;;;3.90;99.90;;;;;;4164601;34;20185;-83
2020/12/02 07:49:11;;;;;;;18.95;11.75;;;3.90;99.90;;;;;;4164809;34;20236;-83
2020/12/02 07:51:42;;;;;;;16.70;10.82;;;3.90;99.90;;;;;;4164888;34;20221;-82
2020/12/02 07:54:15;;;;;;;16.70;11.50;;;4.00;99.90;;;;;;4161372;34;20248;-82
2020/12/02 07:56:46;;;;;;;15.68;13.50;;;4.00;99.90;;;;;;4161430;34;20341;-82
2020/12/02 07:59:17;;;;;;;17.83;14.20;;;4.10;99.90;;;;;;4168555;34;20220;-82
2020/12/02 08:01:53;;;;;;;19.85;14.13;;;4.10;99.90;;;;;;4169152;34;20227;-82
2020/12/02 08:04:36;;;;;;;18.92;11.32;;;4.10;99.90;;;;;;4167238;34;20205;-83
2020/12/02 08:07:05;;;;;;;25.02;16.20;;;4.20;99.90;;;;;;4163914;34;20185;-82
2020/12/02 08:09:37;;;;;;;21.80;11.18;;;4.20;99.90;;;;;;4162623;34;20267;-81
2020/12/02 08:12:08;;;;;;;16.90;12.20;;;4.20;99.90;;;;;;4160204;34;20515;-81
2020/12/02 08:14:37;;;;;;;15.50;11.18;;;4.30;99.90;;;;;;4163147;34;20215;-80
2020/12/02 08:17:18;;;;;;;18.50;11.25;;;4.30;99.90;;;;;;4162608;34;20201;-82
2020/12/02 08:19:47;;;;;;;18.08;11.93;;;4.30;99.90;;;;;;4162329;34;20582;-82
2020/12/02 08:22:27;;;;;;;15.10;10.45;;;4.40;99.90;;;;;;4173489;26;20189;-82
2020/12/02 08:25:16;;;;;;;19.33;12.75;;;4.40;99.90;;;;;;4159875;34;20200;-85
2020/12/02 08:27:51;;;;;;;22.95;12.93;;;4.50;99.90;;;;;;4171179;26;20197;-82
2020/12/02 08:30:21;;;;;;;15.93;12.35;;;4.50;99.90;;;;;;4163195;34;20244;-82
2020/12/02 08:32:57;;;;;;;18.52;13.13;;;4.50;99.90;;;;;;4160347;34;20523;-82
2020/12/02 08:35:34;;;;;;;15.93;11.60;;;4.50;99.90;;;;;;4163152;34;20227;-82
2020/12/02 08:38:03;;;;;;;20.55;13.20;;;4.40;99.90;;;;;;4162904;34;20189;-82
2020/12/02 08:40:43;;;;;;;18.92;12.68;;;4.40;99.90;;;;;;4163681;34;20247;-82
2020/12/02 08:43:18;;;;;;;18.27;12.60;;;4.40;99.90;;;;;;4167168;26;20709;-82
2020/12/02 08:46:02;;;;;;;18.83;11.82;;;4.40;99.90;;;;;;4172006;26;20204;-82
2020/12/02 08:48:28;;;;;;;19.55;13.00;;;4.30;99.90;;;;;;4163158;34;20209;-82
2020/12/02 08:50:54;;;;;;;20.40;13.30;;;4.30;99.90;;;;;;4159781;34;20193;-82
2020/12/02 08:53:23;;;;;;;18.23;13.68;;;4.30;99.90;;;;;;4159391;34;20192;-83
2020/12/02 08:55:50;;;;;;;18.85;12.38;;;4.30;99.90;;;;;;4163968;34;20522;-82
2020/12/02 08:58:16;;;;;;;16.70;10.50;;;4.30;99.90;;;;;;4172678;26;20751;-81
2020/12/02 09:00:44;;;;;;;16.67;11.52;;;4.40;99.90;;;;;;4160569;34;20197;-81
2020/12/02 09:03:10;;;;;;;15.02;10.77;;;4.40;99.90;;;;;;4161408;34;20213;-82
2020/12/02 09:05:37;;;;;;;14.32;10.18;;;4.40;99.90;;;;;;4160783;34;20215;-81
2020/12/02 09:08:03;;;;;;;16.98;11.20;;;4.40;99.90;;;;;;4160290;34;20321;-81
2020/12/02 09:10:30;;;;;;;18.20;11.85;;;4.40;99.90;;;;;;4160643;34;20583;-81
2020/12/02 09:12:59;;;;;;;13.93;10.63;;;4.50;99.90;;;;;;4163433;34;20232;-82
2020/12/02 09:15:30;;;;;;;15.05;10.73;;;4.50;99.90;;;;;;4172250;26;20295;-81
2020/12/02 09:18:00;;;;;;;15.15;9.45;;;4.50;99.90;;;;;;4163608;34;20585;-81
2020/12/02 09:20:29;;;;;;;13.07;10.13;;;4.50;99.90;;;;;;4163834;34;20218;-81
2020/12/02 09:38:59;;;;;;;11.77;9.20;;;4.40;99.90;;;;;;4042043;28;20365;-81
2020/12/02 09:42:08;;;;;;;10.75;8.40;;;4.80;99.90;;;;;;4101608;27;20211;-81
2020/12/02 09:45:01;;;;;;;;;;;;;;;;;;;;;
2020/12/02 09:47:47;;;;;;;17.65;8.73;;;4.70;99.90;;;;;;4159902;34;20221;-82
2020/12/02 09:53:04;;;;;;;;;;;;;;;;;;;;;
2020/12/02 09:56:00;;;;;;;11.77;7.88;;;4.90;99.90;;;;;;5118422;28;20314;-82
2020/12/02 09:58:31;;;;;;;10.07;7.47;;;4.80;99.90;;;;;;5001992;28;20614;-82
2020/12/02 10:01:03;;;;;;;8.80;7.20;;;4.60;99.90;;;;;;5003060;28;20234;-82
2020/12/02 10:04:08;;;;;;;9.80;6.82;;;4.70;99.90;;;;;;5096092;28;20553;-83
2020/12/02 10:06:51;;;;;;;8.75;6.18;;;4.70;99.90;;;;;;5099855;28;20200;-82
2020/12/02 10:09:43;;;;;;;9.85;7.60;;;4.80;99.90;;;;;;5100345;28;20189;-83
2020/12/02 10:12:18;;;;;;;9.65;7.28;;;4.80;99.90;;;;;;5100186;28;20213;-83
2020/12/02 10:15:05;;;;;;;8.73;7.10;;;4.80;99.90;;;;;;5100324;28;20209;-83
2020/12/02 10:17:56;;;;;;;10.43;6.90;;;4.90;99.90;;;;;;5101011;28;20208;-83
2020/12/02 10:20:34;;;;;;;7.60;6.90;;;4.90;99.90;;;;;;5101139;28;20221;-83
2020/12/02 10:23:28;;;;;;;8.70;6.75;;;4.90;99.90;;;;;;5100372;28;20208;-83
2020/12/02 10:26:39;;;;;;;8.52;7.00;;;4.80;99.90;;;;;;5100411;28;20258;-83
2020/12/02 10:29:12;;;;;;;9.10;8.15;;;4.80;99.90;;;;;;5100729;28;20205;-83
2020/12/02 10:31:50;;;;;;;10.80;8.10;;;4.80;99.90;;;;;;5099821;28;20236;-83
2020/12/02 10:34:20;;;;;;;8.07;7.20;;;4.80;99.90;;;;;;5099831;28;20211;-83
2020/12/02 10:36:50;;;;;;;10.10;8.45;;;4.80;99.90;;;;;;5099586;28;20196;-83
2020/12/02 10:39:21;;;;;;;11.27;9.07;;;4.80;99.90;;;;;;5100345;28;20202;-83
2020/12/02 10:41:56;;;;;;;11.23;8.88;;;4.80;99.90;;;;;;5099713;28;20211;-83
2020/12/02 10:44:44;;;;;;;9.27;6.68;;;4.80;99.90;;;;;;5099993;28;20204;-83
2020/12/02 10:48:01;;;;;;;9.63;7.43;;;4.90;99.90;;;;;;5100005;28;20204;-83
2020/12/02 10:50:31;;;;;;;10.18;7.80;;;4.80;99.90;;;;;;5037448;28;20231;-83
2020/12/02 10:52:59;;;;;;;10.10;7.30;;;4.90;99.90;;;;;;5037163;28;20214;-82
2020/12/02 10:55:28;;;;;;;10.55;8.60;;;4.90;99.90;;;;;;5074183;28;20212;-83
2020/12/02 10:57:59;;;;;;;11.40;7.78;;;4.90;99.90;;;;;;5099842;28;20203;-83
2020/12/02 11:00:26;;;;;;;10.02;7.25;;;4.90;99.90;;;;;;5099678;28;20236;-83
2020/12/02 11:03:11;;;;;;;13.35;8.55;;;4.90;99.90;;;;;;5086970;28;20209;-83
2020/12/02 11:05:38;;;;;;;10.52;9.25;;;4.90;99.90;;;;;;5086256;28;20199;-83
2020/12/02 11:08:12;;;;;;;13.15;8.98;;;4.90;99.90;;;;;;5085864;28;20228;-83
2020/12/02 11:10:44;;;;;;;16.45;10.98;;;4.80;99.90;;;;;;5086099;28;20235;-83
2020/12/02 11:13:22;;;;;;;16.52;11.32;;;4.80;99.90;;;;;;5085110;28;20205;-83
2020/12/02 11:15:56;;;;;;;20.23;14.40;;;4.70;99.90;;;;;;5085172;28;20206;-83
2020/12/02 11:18:52;;;;;;;18.00;12.32;;;4.40;99.90;;;;;;5085956;28;20370;-83
2020/12/02 11:21:34;;;;;;;17.65;13.00;;;4.50;99.90;;;;;;5083165;28;20613;-84
2020/12/02 11:24:12;;;;;;;21.48;13.65;;;4.50;99.90;;;;;;5085656;28;20210;-82
2020/12/02 11:26:39;;;;;;;25.73;14.38;;;4.30;99.90;;;;;;5086030;28;20613;-83
2020/12/02 11:29:08;;;;;;;20.58;12.30;;;4.30;99.90;;;;;;5085272;28;20284;-83
2020/12/02 11:32:07;;;;;;;27.35;15.18;;;4.20;99.90;;;;;;5085068;28;20233;-83
2020/12/02 11:34:47;;;;;;;21.30;12.65;;;4.00;99.90;;;;;;5085196;28;20202;-83
2020/12/02 11:37:20;;;;;;;24.00;14.57;;;4.10;99.90;;;;;;5086237;28;20198;-83
2020/12/02 11:40:03;;;;;;;21.98;13.82;;;4.10;99.90;;;;;;5085112;28;20232;-83
2020/12/02 11:42:40;;;;;;;21.35;14.18;;;4.10;99.90;;;;;;5084514;28;20667;-83
2020/12/02 11:45:14;;;;;;;22.63;14.40;;;4.10;99.90;;;;;;5084635;28;20207;-83
2020/12/02 11:47:53;;;;;;;23.92;14.00;;;4.10;99.90;;;;;;5084492;28;20192;-83
2020/12/02 11:50:28;;;;;;;19.25;13.50;;;4.20;99.90;;;;;;5083936;28;20602;-83
2020/12/02 11:53:08;;;;;;;21.52;16.40;;;4.20;99.90;;;;;;5084653;28;20209;-83
2020/12/02 11:55:36;;;;;;;22.83;12.10;;;4.20;99.90;;;;;;5084766;28;20208;-82
2020/12/02 11:58:05;;;;;;;23.80;16.77;;;4.30;99.90;;;;;;5084549;28;20205;-82
2020/12/02 12:00:32;;;;;;;20.38;14.65;;;4.30;99.90;;;;;;5084228;28;20228;-84
2020/12/02 12:03:29;;;;;;;19.27;14.63;;;4.30;99.90;;;;;;5084216;28;20202;-83
2020/12/02 12:06:05;;;;;;;24.80;13.95;;;4.40;99.90;;;;;;5089399;28;20217;-83
2020/12/02 12:08:44;;;;;;;21.38;12.95;;;4.40;99.90;;;;;;5095825;28;20204;-83
2020/12/02 12:11:26;;;;;;;18.48;12.43;;;4.40;99.90;;;;;;5096046;28;20237;-83
2020/12/02 12:13:57;;;;;;;16.33;11.65;;;4.40;99.90;;;;;;5094479;28;20215;-83
2020/12/02 12:16:33;;;;;;;23.00;13.27;;;4.50;99.90;;;;;;5094858;28;20236;-83
2020/12/02 12:19:03;;;;;;;19.00;12.77;;;4.50;99.90;;;;;;5095705;28;20201;-83
2020/12/02 12:21:34;;;;;;;19.42;14.75;;;4.60;99.90;;;;;;5095188;28;20229;-83
2020/12/02 12:24:14;;;;;;;21.52;13.48;;;4.60;99.90;;;;;;5087133;28;20192;-83
2020/12/02 12:26:45;;;;;;;22.50;12.30;;;4.60;99.90;;;;;;5084555;28;20228;-84
2020/12/02 12:29:26;;;;;;;;;;;;;;;;;;;;;
2020/12/02 12:32:54;;;;;;;;;;;;;;;;;;;;;
2020/12/02 12:38:35;;;;;;;19.10;12.00;;;4.50;99.90;;;;;;5088927;28;20310;-84
2020/12/02 12:41:15;;;;;;;20.08;13.15;;;4.40;99.90;;;;;;5085164;28;20224;-84
2020/12/02 12:43:48;;;;;;;22.05;16.10;;;4.20;99.90;;;;;;5084272;28;20215;-84
2020/12/02 12:46:19;;;;;;;23.30;12.95;;;4.30;99.90;;;;;;5085160;28;20200;-84
2020/12/02 12:48:46;;;;;;;24.90;14.75;;;4.20;99.90;;;;;;5084799;28;20213;-83
2020/12/02 12:51:15;;;;;;;26.88;16.02;;;4.20;99.90;;;;;;5083535;28;20235;-83
2020/12/02 12:53:42;;;;;;;20.70;13.50;;;4.10;99.90;;;;;;5083840;28;20215;-82
2020/12/02 12:56:12;;;;;;;20.77;12.52;;;4.20;99.90;;;;;;5084209;28;20215;-83
2020/12/02 12:58:39;;;;;;;22.65;13.80;;;4.20;99.90;;;;;;5083725;28;20222;-83
2020/12/02 13:01:06;;;;;;;26.55;15.50;;;4.10;99.90;;;;;;5083955;28;20589;-83
2020/12/02 13:03:32;;;;;;;24.98;13.80;;;4.10;99.90;;;;;;5083914;28;20211;-83
2020/12/02 13:06:17;;;;;;;23.83;16.02;;;4.10;99.90;;;;;;5083550;28;20212;-83
2020/12/02 13:09:00;;;;;;;22.85;14.35;;;4.10;99.90;;;;;;5083488;28;20192;-82
2020/12/02 13:11:36;;;;;;;22.35;14.45;;;4.10;99.90;;;;;;5083148;28;20233;-83
2020/12/02 13:14:07;;;;;;;27.80;16.25;;;4.10;99.90;;;;;;5084075;28;20232;-82
2020/12/02 13:16:41;;;;;;;20.35;13.18;;;4.00;99.90;;;;;;5083435;28;20668;-81
2020/12/02 13:19:15;;;;;;;25.15;13.50;;;4.00;99.90;;;;;;5084484;28;20190;-84
2020/12/02 13:21:52;;;;;;;21.20;14.60;;;3.90;99.90;;;;;;5083117;28;20240;-83
2020/12/02 13:24:30;;;;;;;17.70;12.90;;;3.90;99.90;;;;;;5082539;28;20295;-83
2020/12/02 13:27:04;;;;;;;21.52;12.93;;;3.90;99.90;;;;;;5083994;28;20207;-82
2020/12/02 13:29:38;;;;;;;21.60;13.00;;;3.80;99.90;;;;;;5083058;28;20189;-83
2020/12/02 13:32:12;;;;;;;20.40;12.07;;;3.70;99.90;;;;;;5083289;28;20229;-82